Time;durP1;ratioP1;P1;durP2;ratioP2;P2;SDS_P1;SDS_P2;PMS_P1;PMS_P2;Temp;Humidity;BMP_temperature;BMP_pressure;BME280_temperature;BME280_humidity;BME280_pressure;Samples;Min_cycle;Max_cycle;Signal;HPM_P1;HPM_P2
2021/12/21 00:01:58;;;;;;;17.08;10.18;;;;;;;3.84;53.35;95974.66;5092116;28;20484;-62
2021/12/21 00:04:23;;;;;;;20.85;9.25;;;;;;;3.96;53.16;96001.66;5092410;28;20093;-62
2021/12/21 00:06:49;;;;;;;21.23;10.55;;;;;;;3.91;52.93;95998.94;5092194;28;20035;-62
2021/12/21 00:09:14;;;;;;;15.52;9.35;;;;;;;3.52;54.00;95974.38;5085763;28;20035;-62
2021/12/21 00:11:39;;;;;;;19.15;9.85;;;;;;;3.03;53.54;95880.28;5090639;28;20457;-62
2021/12/21 00:14:18;;;;;;;16.25;10.18;;;;;;;3.31;53.47;95941.69;5092253;28;20047;-63
2021/12/21 00:19:27;;;;;;;14.30;9.45;;;;;;;3.40;53.78;95971.84;5091680;28;20059;-61
2021/12/21 00:22:03;;;;;;;13.88;8.75;;;;;;;3.89;53.12;95987.88;5091911;28;20032;-62
2021/12/21 00:24:34;;;;;;;15.73;8.80;;;;;;;3.88;52.80;95988.91;5086775;28;20091;-62
2021/12/21 00:27:00;;;;;;;19.80;9.52;;;;;;;3.90;52.70;95995.53;5090745;28;20481;-62
2021/12/21 00:29:26;;;;;;;17.00;9.80;;;;;;;3.75;52.97;95976.09;5091082;28;20040;-62
2021/12/21 00:31:51;;;;;;;17.50;10.00;;;;;;;3.61;52.71;95955.34;5091738;28;20043;-62
2021/12/21 00:34:16;;;;;;;17.05;8.88;;;;;;;3.80;53.03;95984.06;5091673;28;20046;-61
2021/12/21 00:36:42;;;;;;;22.73;9.85;;;;;;;3.71;52.80;95974.97;5091790;28;20027;-61
2021/12/21 00:39:11;;;;;;;15.57;9.93;;;;;;;3.80;52.24;95984.06;5086126;28;20035;-61
2021/12/21 00:41:36;;;;;;;24.50;9.98;;;;;;;3.75;52.92;95983.97;5072273;28;20024;-61
2021/12/21 00:44:02;;;;;;;14.50;9.40;;;;;;;3.68;52.50;95975.44;5091534;28;20406;-62
2021/12/21 00:46:28;;;;;;;24.13;10.05;;;;;;;3.56;52.88;95957.09;5091222;28;20035;-62
2021/12/21 00:48:56;;;;;;;20.20;9.98;;;;;;;3.59;53.00;95975.84;5072998;28;20085;-62
2021/12/21 00:51:26;;;;;;;17.42;9.85;;;;;;;3.22;53.53;95929.97;5091471;28;20024;-62
2021/12/21 00:53:51;;;;;;;16.25;8.70;;;;;;;3.29;53.96;95944.56;5087468;28;20029;-62
2021/12/21 00:56:17;;;;;;;16.23;8.35;;;;;;;3.44;54.09;95957.19;5072128;28;20020;-62
2021/12/21 00:58:42;;;;;;;15.93;8.43;;;;;;;3.27;53.50;95930.84;5072914;28;20028;-62
2021/12/21 01:01:08;;;;;;;14.23;8.70;;;;;;;3.40;53.27;95935.03;5091008;28;20028;-62
2021/12/21 01:03:36;;;;;;;12.25;8.57;;;;;;;3.54;53.94;95954.72;5073201;28;20097;-62
2021/12/21 01:11:27;;;;;;;17.00;8.15;;;;;;;3.54;53.55;95962.59;5089756;28;20036;-62
2021/12/21 01:16:35;;;;;;;18.58;7.80;;;;;;;3.49;53.55;95940.69;5091261;28;20063;-63
2021/12/21 01:21:31;;;;;;;16.17;9.07;;;;;;;3.26;53.82;95912.69;5091486;28;20153;-62
2021/12/21 01:24:09;;;;;;;15.35;8.27;;;;;;;3.54;54.00;95936.31;5088600;28;20115;-62
2021/12/21 01:32:46;;;;;;;20.27;9.65;;;;;;;3.31;53.56;95924.09;5091310;28;20488;-62
2021/12/21 01:34:41;;;;;;;13.98;8.90;;;;;;;3.41;53.78;95931.34;5072954;28;20044;-62
2021/12/21 01:37:18;;;;;;;13.77;8.20;;;;;;;3.50;53.73;95926.50;5072837;28;20024;-62
2021/12/21 01:50:56;;;;;;;13.80;8.57;;;;;;;3.38;53.59;95916.84;5049685;28;20394;-63
2021/12/21 01:53:21;;;;;;;15.95;9.73;;;;;;;3.30;53.39;95908.56;5055062;28;20036;-62
2021/12/21 01:55:47;;;;;;;16.38;8.85;;;;;;;3.35;53.36;95908.63;5087602;28;20073;-62
2021/12/21 01:58:13;;;;;;;15.35;8.90;;;;;;;3.39;53.20;95917.66;5089194;28;20062;-62
2021/12/21 02:00:39;;;;;;;13.50;9.18;;;;;;;3.21;53.55;95904.72;5089402;28;20052;-62
2021/12/21 02:03:05;;;;;;;17.67;8.93;;;;;;;3.37;53.43;95917.06;5090192;28;20059;-62
2021/12/21 02:05:31;;;;;;;19.67;9.20;;;;;;;3.36;53.38;95910.22;5090107;28;20020;-62
2021/12/21 02:07:56;;;;;;;18.55;9.50;;;;;;;3.01;53.89;95886.78;5069382;28;20024;-62
2021/12/21 02:10:22;;;;;;;16.98;8.65;;;;;;;3.03;53.84;95869.75;5064250;28;20072;-62
2021/12/21 02:12:48;;;;;;;21.30;9.98;;;;;;;3.30;53.66;95905.94;5070338;28;20375;-62
2021/12/21 02:15:13;;;;;;;17.40;10.50;;;;;;;3.16;53.79;95880.97;5090111;28;20035;-62
2021/12/21 02:22:45;;;;;;;21.38;10.57;;;;;;;3.26;53.44;95889.81;5090018;28;20036;-62
2021/12/21 02:26:06;;;;;;;18.38;9.93;;;;;;;3.05;53.45;95874.78;5062891;28;20110;-63
2021/12/21 02:30:48;;;;;;;17.25;9.88;;;;;;;3.17;53.55;95885.19;5089177;28;20473;-61
2021/12/21 02:33:14;;;;;;;23.95;10.57;;;;;;;3.13;53.10;95884.91;5089654;28;20170;-62
2021/12/21 02:35:41;;;;;;;19.48;10.25;;;;;;;3.18;52.97;95886.81;5071564;28;20028;-62
2021/12/21 02:38:07;;;;;;;21.73;11.50;;;;;;;3.05;53.15;95864.25;5086726;28;20157;-62
2021/12/21 02:40:33;;;;;;;18.90;11.50;;;;;;;2.96;52.77;95858.59;5082983;28;20124;-62
2021/12/21 02:42:58;;;;;;;19.45;11.32;;;;;;;2.95;53.06;95858.84;5088652;28;20094;-63
2021/12/21 02:45:23;;;;;;;18.80;10.68;;;;;;;3.01;52.92;95874.44;5089377;28;20028;-62
2021/12/21 02:47:49;;;;;;;21.25;11.18;;;;;;;3.01;53.45;95877.06;5089153;28;20072;-62
2021/12/21 02:50:15;;;;;;;19.77;11.00;;;;;;;2.97;53.11;95869.88;5070733;28;20021;-63
2021/12/21 02:52:40;;;;;;;23.08;10.85;;;;;;;2.94;53.00;95879.06;5089321;28;20024;-62
2021/12/21 02:55:07;;;;;;;28.08;13.20;;;;;;;2.82;52.80;95852.06;5081408;28;20101;-62
2021/12/21 02:57:33;;;;;;;21.02;11.73;;;;;;;2.75;52.90;95851.41;5088182;28;20016;-63
2021/12/21 03:00:01;;;;;;;36.80;15.88;;;;;;;2.82;53.33;95858.13;5088528;28;20111;-62
2021/12/21 03:02:28;;;;;;;25.50;14.48;;;;;;;2.91;53.25;95847.19;5089484;28;20085;-62
2021/12/21 03:04:53;;;;;;;54.83;18.27;;;;;;;3.26;53.68;95878.50;5071131;28;20111;-62
2021/12/21 03:10:09;;;;;;;53.13;19.25;;;;;;;3.21;53.33;95820.59;5083893;28;20540;-62
2021/12/21 03:15:23;;;;;;;57.08;19.20;;;;;;;3.91;53.12;95875.25;5053475;28;20524;-62
2021/12/21 03:17:51;;;;;;;45.90;19.80;;;;;;;4.00;52.96;95878.28;5035309;28;20033;-62
2021/12/21 03:20:17;;;;;;;60.40;20.55;;;;;;;4.11;52.47;95872.09;5052309;28;20471;-62
2021/12/21 03:22:43;;;;;;;46.33;19.67;;;;;;;4.33;52.10;95866.81;5052939;28;20021;-62
2021/12/21 03:25:09;;;;;;;55.30;19.70;;;;;;;4.31;51.73;95859.16;5062524;28;20431;-62
2021/12/21 03:27:35;;;;;;;46.80;19.67;;;;;;;4.54;51.57;95868.63;5093016;28;20028;-63
2021/12/21 03:30:00;;;;;;;65.70;20.92;;;;;;;4.53;51.25;95872.31;5092167;28;20461;-62
2021/12/21 03:32:26;;;;;;;122.68;24.23;;;;;;;4.52;51.44;95854.91;5092956;28;20385;-62
2021/12/21 03:34:51;;;;;;;52.42;21.10;;;;;;;4.53;51.40;95856.50;5092430;28;20028;-61
2021/12/21 03:37:17;;;;;;;66.20;21.05;;;;;;;4.56;51.12;95860.47;5092544;28;20103;-62
2021/12/21 03:39:44;;;;;;;79.97;22.45;;;;;;;4.58;51.01;95871.56;5085707;28;20472;-62
2021/12/21 03:42:12;;;;;;;79.47;22.63;;;;;;;4.61;51.49;95874.50;5091445;28;20020;-62
2021/12/21 03:44:37;;;;;;;59.65;21.65;;;;;;;4.55;51.38;95859.66;5092842;28;20039;-62
2021/12/21 03:47:04;;;;;;;55.28;21.58;;;;;;;4.54;51.29;95852.00;5092577;28;20574;-62
2021/12/21 03:51:58;;;;;;;48.28;20.30;;;;;;;4.80;51.20;95867.03;5092555;28;20099;-62
2021/12/21 03:54:24;;;;;;;43.33;19.48;;;;;;;4.68;50.93;95861.91;5070119;28;20043;-62
2021/12/21 03:56:51;;;;;;;46.60;19.90;;;;;;;4.80;50.97;95855.69;5071900;28;20032;-62
2021/12/21 03:59:17;;;;;;;45.25;19.38;;;;;;;4.89;50.85;95857.63;5073406;28;20856;-62
2021/12/21 04:01:43;;;;;;;42.03;19.90;;;;;;;4.94;50.45;95856.88;5074052;28;20034;-62
2021/12/21 04:04:08;;;;;;;48.75;20.67;;;;;;;4.60;50.42;95812.28;5073997;28;20028;-62
2021/12/21 04:06:35;;;;;;;50.55;21.08;;;;;;;4.48;50.50;95805.59;5092304;28;20032;-62
2021/12/21 04:09:04;;;;;;;43.38;20.63;;;;;;;4.53;50.37;95824.09;5069481;28;20115;-62
2021/12/21 04:11:30;;;;;;;55.30;22.58;;;;;;;4.45;50.73;95846.38;5090910;28;20051;-62
2021/12/21 04:13:56;;;;;;;48.40;22.73;;;;;;;4.26;50.55;95824.06;5074193;28;20158;-62
2021/12/21 04:16:22;;;;;;;42.15;19.08;;;;;;;4.13;50.60;95828.66;5073907;28;20607;-62
2021/12/21 04:18:47;;;;;;;58.53;22.15;;;;;;;4.00;50.91;95815.09;5091881;28;20107;-62
2021/12/21 04:21:13;;;;;;;42.03;18.98;;;;;;;4.08;50.69;95849.66;5090740;28;20123;-63
2021/12/21 04:23:39;;;;;;;57.05;22.02;;;;;;;3.82;51.02;95839.84;5070565;28;20093;-62
2021/12/21 04:26:05;;;;;;;45.47;21.35;;;;;;;3.72;51.26;95845.00;5071400;28;20035;-62
2021/12/21 04:28:31;;;;;;;50.30;22.33;;;;;;;3.69;51.47;95863.91;5091421;28;20115;-62
2021/12/21 04:30:56;;;;;;;46.50;21.77;;;;;;;3.53;51.41;95849.72;5091394;28;20035;-62
2021/12/21 04:33:21;;;;;;;57.70;22.55;;;;;;;3.42;51.76;95856.66;5091445;28;20070;-64
2021/12/21 04:35:47;;;;;;;50.28;21.23;;;;;;;3.30;51.41;95854.13;5073621;28;20020;-62
2021/12/21 04:38:29;;;;;;;41.63;19.85;;;;;;;3.32;51.53;95859.94;5073195;28;20059;-62
2021/12/21 04:41:21;;;;;;;48.88;20.75;;;;;;;3.22;52.06;95840.59;5087223;28;20040;-62
2021/12/21 04:43:44;;;;;;;50.28;21.48;;;;;;;3.39;51.86;95854.53;5090835;28;20044;-63
2021/12/21 04:46:11;;;;;;;49.35;21.38;;;;;;;3.34;51.78;95841.31;5091473;28;20035;-61
2021/12/21 04:48:37;;;;;;;46.60;21.60;;;;;;;3.51;52.10;95852.59;5091343;28;20052;-61
2021/12/21 04:51:03;;;;;;;44.53;20.75;;;;;;;3.48;52.20;95842.59;5073101;28;20736;-62
2021/12/21 04:53:29;;;;;;;56.58;22.67;;;;;;;3.65;52.04;95860.97;5091703;28;20020;-61
2021/12/21 04:55:54;;;;;;;49.17;21.05;;;;;;;3.64;52.41;95848.84;5068929;28;20032;-61
2021/12/21 04:58:20;;;;;;;50.63;21.40;;;;;;;3.79;52.15;95866.69;5089874;28;20104;-61
2021/12/21 05:00:47;;;;;;;52.38;21.98;;;;;;;3.47;52.03;95840.16;5090639;28;20035;-61
2021/12/21 05:03:13;;;;;;;50.22;20.38;;;;;;;3.45;53.30;95865.94;5091651;28;20020;-61
2021/12/21 05:05:39;;;;;;;47.47;19.98;;;;;;;3.45;53.15;95856.19;5073381;28;20034;-62
2021/12/21 05:08:09;;;;;;;41.80;20.67;;;;;;;3.74;53.32;95848.97;5091021;28;20051;-62
2021/12/21 05:10:52;;;;;;;41.72;20.15;;;;;;;4.00;53.30;95857.22;5088020;28;20035;-62
2021/12/21 05:13:20;;;;;;;40.67;20.10;;;;;;;4.08;52.79;95854.94;5061501;28;20027;-62
2021/12/21 05:15:46;;;;;;;41.60;20.75;;;;;;;4.20;52.63;95854.00;5091079;28;20024;-62
2021/12/21 05:18:13;;;;;;;43.83;19.90;;;;;;;4.23;52.40;95848.25;5072583;28;20078;-62
2021/12/21 05:20:40;;;;;;;39.22;19.33;;;;;;;4.20;52.19;95831.13;5090323;28;20024;-62
2021/12/21 05:23:07;;;;;;;51.65;21.58;;;;;;;4.50;52.37;95856.19;5091034;28;20020;-61
2021/12/21 05:25:34;;;;;;;35.30;18.42;;;;;;;4.55;52.16;95862.28;5056080;28;20129;-62
2021/12/21 05:28:00;;;;;;;34.70;18.88;;;;;;;4.80;51.87;95864.41;5088918;28;20012;-61
2021/12/21 05:30:26;;;;;;;36.15;18.75;;;;;;;4.91;51.37;95865.28;5090168;28;20020;-62
2021/12/21 05:32:52;;;;;;;38.05;18.85;;;;;;;4.79;51.57;95820.63;5089858;28;20031;-62
2021/12/21 05:35:18;;;;;;;40.38;17.77;;;;;;;5.19;51.04;95859.72;5072581;28;20028;-62
2021/12/21 05:37:46;;;;;;;30.67;17.67;;;;;;;5.29;50.97;95859.03;5090694;28;20031;-61
2021/12/21 05:40:14;;;;;;;43.47;19.90;;;;;;;5.34;50.65;95861.69;5056646;28;20028;-61
2021/12/21 05:42:41;;;;;;;29.13;15.82;;;;;;;5.43;50.60;95870.75;5069995;28;20077;-61
2021/12/21 05:45:08;;;;;;;27.10;17.58;;;;;;;5.40;50.68;95859.88;5090398;28;20031;-62
2021/12/21 05:47:34;;;;;;;31.35;17.50;;;;;;;5.38;49.71;95840.88;5072181;28;20020;-61
2021/12/21 05:49:59;;;;;;;31.17;15.55;;;;;;;5.57;49.69;95859.72;5089671;28;20092;-62
2021/12/21 05:52:25;;;;;;;31.73;16.52;;;;;;;5.69;49.42;95857.72;5090329;28;20028;-62
2021/12/21 05:54:50;;;;;;;35.45;16.38;;;;;;;5.76;49.74;95868.03;5064107;28;20382;-62
2021/12/21 05:57:16;;;;;;;32.33;16.25;;;;;;;5.80;49.43;95872.56;5087475;28;20020;-62
2021/12/21 05:59:42;;;;;;;31.13;15.25;;;;;;;5.85;49.31;95869.16;5070737;28;20119;-62
2021/12/21 06:02:08;;;;;;;27.40;16.77;;;;;;;5.80;49.18;95851.44;5090030;28;20036;-62
2021/12/21 06:04:33;;;;;;;30.00;16.15;;;;;;;5.86;48.78;95857.53;5071707;28;20020;-62
2021/12/21 06:06:59;;;;;;;34.25;16.67;;;;;;;5.85;49.08;95850.69;5089888;28;20035;-62
2021/12/21 06:09:25;;;;;;;29.63;16.52;;;;;;;5.79;49.40;95849.06;5083654;28;20059;-64
2021/12/21 06:12:05;;;;;;;26.08;15.35;;;;;;;5.84;48.98;95844.59;5067424;28;20059;-63
2021/12/21 06:23:19;;;;;;;27.58;15.30;;;;;;;6.10;48.38;95866.69;5089838;28;20085;-61
2021/12/21 06:25:40;;;;;;;34.38;16.17;;;;;;;6.25;48.33;95876.50;5080319;28;20024;-64
2021/12/21 06:28:09;;;;;;;24.38;14.15;;;;;;;6.19;48.17;95856.38;5074238;28;20020;-62
2021/12/21 06:30:35;;;;;;;24.27;14.45;;;;;;;6.33;47.89;95877.84;5089004;28;20031;-64
2021/12/21 06:33:01;;;;;;;25.80;14.75;;;;;;;6.36;47.43;95880.78;5089743;28;20016;-62
2021/12/21 06:35:27;;;;;;;31.50;15.02;;;;;;;6.27;47.75;95860.41;5089276;28;20028;-62
2021/12/21 06:37:52;;;;;;;21.63;14.98;;;;;;;6.18;48.09;95855.59;5089493;28;20035;-63
2021/12/21 06:40:19;;;;;;;22.00;13.70;;;;;;;6.32;47.16;95873.63;5082199;28;20031;-62
2021/12/21 06:42:49;;;;;;;22.00;14.48;;;;;;;6.39;47.83;95871.53;5086139;28;20097;-62
2021/12/21 06:45:26;;;;;;;31.73;17.65;;;;;;;6.35;47.90;95867.84;5089558;28;20016;-62
2021/12/21 06:53:20;;;;;;;24.58;14.85;;;;;;;6.49;46.95;95861.78;5089340;28;20042;-62
2021/12/21 06:55:46;;;;;;;33.45;17.15;;;;;;;6.59;47.22;95871.59;5082428;28;20486;-62
2021/12/21 06:58:11;;;;;;;29.45;15.55;;;;;;;6.53;46.89;95864.72;5088211;28;20099;-62
2021/12/21 07:00:37;;;;;;;25.75;15.50;;;;;;;6.59;47.49;95881.38;5088913;28;20108;-62
2021/12/21 07:03:03;;;;;;;23.90;15.57;;;;;;;6.37;47.20;95848.00;5089377;28;20034;-62
2021/12/21 07:05:29;;;;;;;38.80;17.95;;;;;;;6.34;47.49;95882.06;5089316;28;20031;-62
2021/12/21 07:07:55;;;;;;;34.80;17.15;;;;;;;6.09;47.21;95851.06;5089358;28;20034;-62
2021/12/21 07:10:27;;;;;;;29.77;16.10;;;;;;;5.84;47.92;95851.72;5082964;28;20409;-64
2021/12/21 07:20:31;;;;;;;29.25;17.33;;;;;;;5.90;48.65;95861.25;5088590;28;20059;-66
2021/12/21 07:22:57;;;;;;;34.47;17.30;;;;;;;5.86;47.77;95853.06;5089077;28;20101;-63
2021/12/21 07:25:25;;;;;;;29.02;16.17;;;;;;;5.90;47.55;95869.19;5084146;28;20116;-67
2021/12/21 07:27:51;;;;;;;35.55;17.83;;;;;;;5.96;47.67;95874.25;5087700;28;20020;-64
2021/12/21 07:30:16;;;;;;;35.75;17.40;;;;;;;6.05;47.91;95865.84;5069806;28;20461;-64
2021/12/21 07:32:42;;;;;;;35.70;18.35;;;;;;;6.29;47.66;95869.63;5089210;28;20024;-63
2021/12/21 07:35:08;;;;;;;41.40;20.35;;;;;;;6.25;47.62;95853.53;5088805;28;20614;-64
2021/12/21 07:37:33;;;;;;;39.42;18.25;;;;;;;6.45;47.56;95865.22;5070777;28;20531;-62
2021/12/21 07:39:58;;;;;;;31.98;18.23;;;;;;;6.18;47.57;95831.81;5083689;28;20051;-65
2021/12/21 07:42:24;;;;;;;37.78;19.27;;;;;;;6.41;47.26;95856.22;5086229;28;20036;-62
2021/12/21 07:44:49;;;;;;;40.80;19.38;;;;;;;6.58;46.96;95879.78;5088714;28;20465;-64
2021/12/21 07:47:16;;;;;;;38.30;19.33;;;;;;;6.71;47.36;95872.19;5088753;28;20024;-63
2021/12/21 07:49:42;;;;;;;38.42;19.52;;;;;;;6.53;46.72;95846.22;5087921;28;20127;-64
2021/12/21 07:52:09;;;;;;;39.13;20.05;;;;;;;6.47;46.76;95860.47;5069974;28;20123;-64
2021/12/21 07:54:35;;;;;;;37.42;19.83;;;;;;;6.62;46.68;95880.88;5085881;28;20090;-63
2021/12/21 07:57:00;;;;;;;44.95;20.77;;;;;;;6.33;47.18;95864.66;5071906;28;20027;-63
2021/12/21 07:59:26;;;;;;;39.13;20.23;;;;;;;6.58;46.84;95869.22;5090926;28;20030;-63
2021/12/21 08:01:53;;;;;;;36.47;18.17;;;;;;;6.74;46.75;95849.69;5093217;28;20020;-66
2021/12/21 08:04:22;;;;;;;35.30;19.33;;;;;;;6.28;47.28;95856.69;5092206;28;20140;-67
2021/12/21 08:06:49;;;;;;;34.20;18.92;;;;;;;6.38;47.02;95843.53;5092192;28;20599;-66
2021/12/21 08:09:15;;;;;;;32.83;18.52;;;;;;;6.40;47.14;95825.56;5091316;28;20032;-67
2021/12/21 08:14:06;;;;;;;30.90;17.95;;;;;;;6.19;47.31;95870.41;5092307;28;20127;-62
2021/12/21 08:16:32;;;;;;;26.63;16.90;;;;;;;6.25;46.72;95879.94;5092090;28;20016;-64
2021/12/21 08:18:58;;;;;;;24.60;17.02;;;;;;;5.55;47.43;95806.44;5091366;28;20051;-66
2021/12/21 08:21:25;;;;;;;39.72;19.92;;;;;;;5.98;47.49;95882.72;5091842;28;20661;-68
2021/12/21 08:23:51;;;;;;;32.80;18.90;;;;;;;6.02;48.51;95872.44;5091427;28;20020;-65
2021/12/21 08:26:17;;;;;;;47.30;22.52;;;;;;;5.38;48.37;95860.16;5087878;28;20028;-67
2021/12/21 08:28:42;;;;;;;41.83;22.92;;;;;;;5.51;49.25;95866.81;5089774;28;20043;-68
2021/12/21 08:31:11;;;;;;;38.47;21.38;;;;;;;5.92;48.56;95877.66;5091191;28;20094;-67
2021/12/21 08:33:37;;;;;;;36.75;20.52;;;;;;;6.04;48.45;95880.91;5091797;28;20031;-68
2021/12/21 08:36:04;;;;;;;36.58;20.73;;;;;;;6.07;47.58;95848.69;5091868;28;20020;-65
2021/12/21 08:38:31;;;;;;;41.45;20.55;;;;;;;5.95;47.92;95848.13;5091270;28;20024;-66
2021/12/21 08:40:59;;;;;;;41.03;20.50;;;;;;;6.20;47.71;95850.88;5088227;28;20489;-68
2021/12/21 08:43:28;;;;;;;34.85;18.45;;;;;;;6.49;47.70;95845.94;5088971;28;20038;-68
2021/12/21 08:45:55;;;;;;;30.27;18.23;;;;;;;6.45;47.09;95839.59;5091477;28;20103;-68
2021/12/21 08:48:21;;;;;;;31.08;20.48;;;;;;;6.54;46.35;95868.16;5091275;28;20388;-67
2021/12/21 08:50:49;;;;;;;36.53;19.15;;;;;;;6.45;46.56;95825.59;5091203;28;20031;-65
2021/12/21 08:53:15;;;;;;;30.33;17.95;;;;;;;6.76;46.00;95861.59;5091209;28;20732;-64
2021/12/21 08:55:42;;;;;;;30.73;18.83;;;;;;;6.48;46.21;95788.06;5088744;28;20040;-63
2021/12/21 08:58:09;;;;;;;32.17;19.40;;;;;;;7.25;45.48;95892.06;5088362;28;20020;-63
2021/12/21 09:00:36;;;;;;;31.10;18.73;;;;;;;7.02;45.84;95862.44;5090353;28;20362;-63
2021/12/21 09:03:02;;;;;;;28.02;17.00;;;;;;;6.75;45.52;95807.13;5091353;28;20024;-63
2021/12/21 09:05:30;;;;;;;29.15;18.10;;;;;;;7.22;44.68;95885.47;5091045;28;20366;-63
2021/12/21 09:07:56;;;;;;;30.65;17.63;;;;;;;7.03;45.05;95877.25;5090644;28;20016;-63
2021/12/21 09:10:25;;;;;;;25.73;17.90;;;;;;;6.91;45.47;95876.72;5059715;28;20040;-67
2021/12/21 09:12:52;;;;;;;30.08;17.45;;;;;;;6.61;45.02;95839.63;5085955;28;20013;-68
2021/12/21 09:15:19;;;;;;;26.35;16.85;;;;;;;6.51;45.35;95848.34;5090634;28;20073;-67
2021/12/21 09:17:47;;;;;;;24.02;16.55;;;;;;;5.96;45.84;95807.44;5090917;28;20760;-66
2021/12/21 09:20:14;;;;;;;32.40;19.58;;;;;;;6.03;46.05;95810.63;5089865;28;20059;-65
2021/12/21 09:22:41;;;;;;;27.13;17.30;;;;;;;5.71;45.92;95773.78;5090657;28;20046;-63
2021/12/21 09:25:07;;;;;;;25.08;16.83;;;;;;;6.29;46.16;95868.84;5086928;28;20025;-62
2021/12/21 09:27:33;;;;;;;25.13;17.48;;;;;;;6.18;47.29;95860.88;5085320;28;20029;-65
2021/12/21 09:29:59;;;;;;;26.50;17.10;;;;;;;6.00;46.55;95842.84;5089213;28;20508;-64
2021/12/21 09:32:25;;;;;;;27.80;15.95;;;;;;;6.09;46.39;95870.38;5090281;28;20056;-64
2021/12/21 09:34:51;;;;;;;26.42;16.00;;;;;;;5.71;46.46;95800.97;5090463;28;20023;-63
2021/12/21 09:37:20;;;;;;;19.98;14.65;;;;;;;6.22;47.13;95869.88;5090623;28;20020;-66
2021/12/21 09:39:52;;;;;;;22.80;15.77;;;;;;;6.05;46.94;95842.09;5089442;28;20032;-65
2021/12/21 09:42:21;;;;;;;21.20;15.25;;;;;;;5.48;47.21;95767.88;5077590;28;20035;-66
2021/12/21 09:44:48;;;;;;;24.35;14.82;;;;;;;6.12;46.63;95850.56;5089041;28;20098;-63
2021/12/21 09:47:14;;;;;;;23.90;15.85;;;;;;;6.09;46.77;95814.91;5090128;28;20052;-63
2021/12/21 09:49:41;;;;;;;30.80;17.13;;;;;;;6.33;46.83;95869.94;5089685;28;20422;-65
2021/12/21 09:52:09;;;;;;;31.30;18.85;;;;;;;6.23;46.65;95855.63;5089939;28;20043;-65
2021/12/21 09:54:35;;;;;;;29.70;19.35;;;;;;;5.71;47.94;95869.59;5090317;28;20023;-65
2021/12/21 09:57:01;;;;;;;31.98;19.50;;;;;;;5.29;49.29;95868.78;5081435;28;20020;-65
2021/12/21 09:59:27;;;;;;;30.00;17.95;;;;;;;5.52;49.00;95876.31;5087855;28;20024;-65
2021/12/21 10:01:57;;;;;;;28.88;17.60;;;;;;;5.82;47.97;95872.28;5089839;28;20098;-65
2021/12/21 10:04:26;;;;;;;24.33;16.63;;;;;;;5.62;47.91;95857.13;5090190;28;20020;-64
2021/12/21 10:06:54;;;;;;;27.77;16.55;;;;;;;5.92;47.26;95870.53;5090324;28;20098;-64
2021/12/21 10:09:23;;;;;;;33.47;17.70;;;;;;;5.91;47.27;95855.75;5089520;28;20024;-66
2021/12/21 10:11:50;;;;;;;29.83;18.10;;;;;;;5.78;47.33;95821.84;5059933;28;20028;-64
2021/12/21 10:14:17;;;;;;;30.10;17.08;;;;;;;6.21;47.46;95864.88;5088261;28;20031;-65
2021/12/21 10:16:44;;;;;;;27.38;17.92;;;;;;;6.01;47.25;95814.59;5089630;28;20023;-65
2021/12/21 10:19:23;;;;;;;25.33;17.90;;;;;;;5.77;48.21;95846.66;5088313;28;20034;-64
2021/12/21 10:21:49;;;;;;;26.98;18.27;;;;;;;5.23;48.73;95812.56;5089768;28;20044;-67
2021/12/21 10:24:26;;;;;;;23.25;15.48;;;;;;;5.89;48.04;95857.03;5089796;28;20062;-63
2021/12/21 10:27:04;;;;;;;23.38;16.85;;;;;;;5.50;48.11;95844.13;5083296;28;20028;-64
2021/12/21 10:29:40;;;;;;;21.25;15.23;;;;;;;5.73;48.07;95849.03;5087715;28;20119;-63
2021/12/21 10:32:06;;;;;;;27.13;16.73;;;;;;;5.78;47.80;95810.50;5031353;28;20035;-63
2021/12/21 10:34:31;;;;;;;25.00;16.63;;;;;;;5.97;47.64;95824.88;5049138;28;20029;-65
2021/12/21 10:36:57;;;;;;;22.02;15.73;;;;;;;5.73;47.59;95790.97;5049185;28;20455;-66
2021/12/21 10:39:32;;;;;;;29.70;16.25;;;;;;;5.23;47.32;95738.72;5048499;28;20112;-66
2021/12/21 10:42:02;;;;;;;26.83;16.02;;;;;;;5.78;48.05;95842.16;5074014;28;20017;-65
2021/12/21 10:44:28;;;;;;;23.25;15.20;;;;;;;5.83;48.17;95836.91;5088318;28;20016;-66
2021/12/21 10:46:56;;;;;;;23.08;15.70;;;;;;;5.06;47.04;95696.66;5089263;28;20020;-66
2021/12/21 10:49:26;;;;;;;21.23;15.18;;;;;;;5.21;47.74;95761.88;5088525;28;20044;-66
2021/12/21 10:52:07;;;;;;;20.33;14.55;;;;;;;5.25;47.20;95756.91;5089372;28;20034;-66
2021/12/21 10:54:47;;;;;;;20.70;13.48;;;;;;;5.62;47.32;95831.53;5089163;28;20035;-65
2021/12/21 10:57:24;;;;;;;31.17;14.57;;;;;;;5.66;47.00;95815.97;5082898;28;20067;-68
2021/12/21 10:59:53;;;;;;;18.13;13.27;;;;;;;5.80;47.44;95792.56;5086960;28;20105;-68
2021/12/21 11:02:28;;;;;;;19.73;13.70;;;;;;;5.90;46.89;95819.00;5089238;28;20024;-66
2021/12/21 11:04:59;;;;;;;18.83;13.48;;;;;;;5.62;46.54;95765.53;5088907;28;20024;-65
2021/12/21 11:07:37;;;;;;;18.88;13.27;;;;;;;5.57;46.87;95776.06;5089304;28;20367;-65
2021/12/21 11:10:13;;;;;;;17.60;13.32;;;;;;;5.63;47.39;95834.97;5088292;28;20024;-61
2021/12/21 11:12:44;;;;;;;24.13;13.27;;;;;;;5.69;47.54;95840.03;5082914;28;20040;-62
2021/12/21 11:15:11;;;;;;;16.95;13.18;;;;;;;5.58;47.56;95825.19;5088839;28;20035;-62
2021/12/21 11:17:37;;;;;;;18.80;12.98;;;;;;;5.94;47.17;95825.41;5088980;28;20031;-63
2021/12/21 11:20:04;;;;;;;18.20;12.85;;;;;;;5.82;47.33;95808.94;5088232;28;20111;-62
2021/12/21 11:22:31;;;;;;;15.38;12.77;;;;;;;5.89;46.57;95812.16;5070904;28;20491;-62
2021/12/21 11:24:59;;;;;;;20.73;13.15;;;;;;;5.83;47.49;95798.09;5088999;28;20447;-62
2021/12/21 11:27:28;;;;;;;22.00;14.30;;;;;;;6.01;47.12;95817.25;5083904;28;20405;-63
2021/12/21 11:29:59;;;;;;;19.10;13.60;;;;;;;5.33;48.21;95796.00;5088670;28;20039;-62
2021/12/21 11:32:27;;;;;;;27.35;13.68;;;;;;;6.13;47.19;95791.41;5092989;28;20100;-63
2021/12/21 11:37:44;;;;;;;17.73;13.52;;;;;;;6.20;46.71;95805.97;5092564;28;20505;-65
2021/12/21 11:40:14;;;;;;;20.77;13.77;;;;;;;6.28;45.73;95820.50;5091914;28;20115;-64
2021/12/21 11:42:56;;;;;;;21.63;14.20;;;;;;;6.14;46.75;95807.00;5068244;28;20580;-64
2021/12/21 11:45:30;;;;;;;19.88;13.35;;;;;;;6.12;46.85;95806.44;5092158;28;20099;-64
2021/12/21 11:48:10;;;;;;;20.27;12.93;;;;;;;6.23;46.27;95800.16;5092444;28;20043;-66
2021/12/21 11:50:46;;;;;;;16.88;12.52;;;;;;;6.42;46.05;95800.47;5092077;28;20114;-66
2021/12/21 11:53:14;;;;;;;16.92;12.63;;;;;;;6.27;46.85;95795.16;5069652;28;20439;-65
2021/12/21 11:55:43;;;;;;;20.65;15.00;;;;;;;5.98;46.77;95798.19;5089491;28;20036;-66
2021/12/21 11:58:22;;;;;;;21.88;15.27;;;;;;;6.08;47.35;95786.88;5064458;28;20063;-67
2021/12/21 12:01:00;;;;;;;21.70;14.45;;;;;;;6.02;46.90;95780.00;5091888;28;20064;-65
2021/12/21 12:03:29;;;;;;;21.23;15.10;;;;;;;5.94;47.11;95754.13;5092624;28;20032;-66
2021/12/21 12:06:05;;;;;;;20.15;14.18;;;;;;;5.65;48.13;95794.06;5092098;28;20020;-65
2021/12/21 12:08:46;;;;;;;17.95;14.77;;;;;;;5.87;47.74;95775.44;5091795;28;20032;-64
2021/12/21 12:11:37;;;;;;;20.63;14.77;;;;;;;6.08;47.22;95794.81;5089439;28;20027;-64
2021/12/21 12:14:21;;;;;;;26.25;15.02;;;;;;;5.12;49.04;95755.53;5090597;28;20042;-64
2021/12/21 12:16:53;;;;;;;20.40;14.88;;;;;;;5.72;48.80;95781.44;5091975;28;20032;-65
2021/12/21 12:19:20;;;;;;;;;;;;;;;6.06;47.77;95790.84;5091621;28;20028;-64
2021/12/21 12:22:14;;;;;;;25.55;14.00;;;;;;;6.12;47.06;95781.88;5073642;28;19917;-63
2021/12/21 12:24:42;;;;;;;18.05;13.98;;;;;;;6.09;47.66;95772.66;5088526;28;20115;-65
2021/12/21 12:27:19;;;;;;;18.90;13.30;;;;;;;5.27;48.40;95762.72;5088909;28;20120;-65
2021/12/21 12:30:10;;;;;;;17.17;13.40;;;;;;;5.65;48.56;95780.88;5088620;28;20059;-65
2021/12/21 12:32:37;;;;;;;18.98;13.23;;;;;;;5.53;48.70;95779.47;5091752;28;20439;-65
2021/12/21 12:35:09;;;;;;;14.48;12.30;;;;;;;5.47;48.92;95776.81;5073768;28;20104;-67
2021/12/21 12:37:47;;;;;;;;;;;;;;;5.86;48.38;95778.34;5092366;28;20020;-67
2021/12/21 12:40:15;;;;;;;20.13;12.77;;;;;;;5.59;47.87;95737.03;5073082;28;19912;-66
2021/12/21 12:42:40;;;;;;;19.38;12.88;;;;;;;5.99;46.98;95741.72;5081893;28;20031;-64
2021/12/21 12:45:19;;;;;;;22.90;13.40;;;;;;;5.81;48.08;95765.13;5072077;28;20024;-66